createdAt,value
2019-02-22T00:00:11.928Z,25.99
2019-02-22T00:01:11.830Z,25.81
2019-02-22T00:02:11.727Z,25.71
2019-02-22T00:03:11.631Z,25.14
2019-02-22T00:04:11.543Z,24.76
2019-02-22T00:05:11.542Z,23.72
2019-02-22T00:06:11.329Z,23.53
2019-02-22T00:07:11.233Z,23.34
2019-02-22T00:08:11.133Z,23.24
2019-02-22T00:09:11.050Z,23.05
2019-02-22T00:10:10.948Z,22.86
2019-02-22T00:11:10.834Z,22.77
2019-02-22T00:12:10.842Z,22.58
2019-02-22T00:13:10.634Z,22.49
2019-02-22T00:14:10.554Z,21.82
2019-02-22T00:15:10.437Z,21.63
2019-02-22T00:16:10.340Z,21.92
2019-02-22T00:17:10.239Z,21.25
2019-02-22T00:18:10.142Z,20.78
2019-02-22T00:19:10.159Z,20.50
2019-02-22T00:20:09.941Z,21.15
2019-02-22T00:21:09.843Z,20.68
2019-02-22T00:22:09.744Z,20.31
2019-02-22T00:23:09.643Z,19.73
2019-02-22T00:24:09.561Z,19.64
2019-02-22T00:25:09.555Z,19.26
2019-02-22T00:26:11.125Z,19.07
2019-02-22T00:27:09.247Z,18.88
2019-02-22T00:28:09.149Z,18.31
2019-02-22T00:29:09.064Z,18.50
2019-02-22T00:30:08.948Z,18.31
2019-02-22T00:31:08.851Z,18.02
2019-02-22T00:32:08.752Z,17.55
2019-02-22T00:33:08.751Z,17.83
2019-02-22T00:34:08.569Z,17.36
2019-02-22T00:35:08.484Z,17.17
2019-02-22T00:36:08.431Z,16.98
2019-02-22T00:37:08.311Z,16.70
2019-02-22T00:38:08.156Z,16.60
2019-02-22T00:39:08.070Z,16.22
2019-02-22T00:40:07.963Z,16.13
2019-02-22T00:41:07.855Z,16.03
2019-02-22T00:42:07.755Z,15.37
2019-02-22T00:43:07.661Z,15.08
2019-02-22T00:44:07.578Z,14.70
2019-02-22T00:45:07.460Z,14.43
2019-02-22T00:46:07.379Z,14.42
2019-02-22T00:47:07.263Z,14.04
2019-02-22T00:48:07.161Z,14.04
2019-02-22T00:49:07.061Z,13.29
2019-02-22T00:50:06.978Z,13.10
2019-02-22T00:51:06.866Z,13.00
2019-02-22T00:52:06.767Z,13.10
2019-02-22T00:53:06.665Z,12.90
2019-02-22T00:54:06.577Z,12.81
2019-02-22T00:55:06.464Z,12.34
2019-02-22T00:56:06.367Z,12.34
2019-02-22T00:57:06.265Z,11.95
2019-02-22T00:58:06.167Z,11.49
2019-02-22T00:59:06.071Z,12.05
2019-02-22T01:00:05.988Z,11.39
2019-02-22T01:01:05.868Z,11.30
2019-02-22T01:02:05.770Z,11.01
2019-02-22T01:03:05.674Z,10.72
2019-02-22T01:04:05.575Z,10.82
2019-02-22T01:05:05.496Z,10.15
2019-02-22T01:06:05.372Z,10.35
2019-02-22T01:07:05.272Z,10.35
2019-02-22T01:08:05.174Z,10.16
2019-02-22T01:09:05.074Z,10.06
2019-02-22T01:10:04.992Z,9.97
2019-02-22T01:11:04.875Z,9.97
2019-02-22T01:12:04.777Z,9.68
2019-02-22T01:13:04.673Z,9.49
2019-02-22T01:14:04.579Z,9.68
2019-02-22T01:15:04.493Z,9.68
2019-02-22T01:16:04.379Z,9.68
2019-02-22T01:17:04.275Z,9.20
2019-02-22T01:18:04.192Z,8.73
2019-02-22T01:19:04.086Z,8.73
2019-02-22T01:20:04.009Z,8.83
2019-02-22T01:21:03.878Z,8.64
2019-02-22T01:22:03.786Z,8.73
2019-02-22T01:23:03.681Z,8.54
2019-02-22T01:24:03.582Z,8.45
2019-02-22T01:25:03.498Z,7.87
2019-02-22T01:26:03.386Z,7.97
2019-02-22T01:27:03.281Z,7.78
2019-02-22T01:28:03.194Z,7.40
2019-02-22T01:29:03.091Z,7.31
2019-02-22T01:30:03.003Z,6.93
2019-02-22T01:31:02.892Z,6.64
2019-02-22T01:32:02.787Z,6.26
2019-02-22T01:33:02.687Z,5.79
2019-02-22T01:34:02.592Z,6.07
2019-02-22T01:35:02.506Z,5.60
2019-02-22T01:36:02.406Z,5.22
2019-02-22T01:37:02.294Z,5.32
2019-02-22T01:38:02.195Z,5.12
2019-02-22T01:39:02.094Z,4.46
2019-02-22T01:40:02.062Z,5.03
2019-02-22T01:41:01.893Z,4.36
2019-02-22T01:42:01.799Z,4.27
2019-02-22T01:43:01.695Z,3.99
2019-02-22T01:44:01.597Z,3.80
2019-02-22T01:45:01.522Z,3.61
2019-02-22T01:46:01.398Z,3.51
2019-02-22T01:47:01.298Z,3.03
2019-02-22T01:48:01.197Z,3.22
2019-02-22T01:49:01.099Z,3.22
2019-02-22T01:50:01.013Z,3.03
2019-02-22T01:51:00.899Z,3.22
2019-02-22T01:52:00.798Z,2.94
2019-02-22T01:53:00.705Z,2.56
2019-02-22T01:54:00.602Z,2.75
2019-02-22T01:55:00.519Z,2.75
2019-02-22T01:56:00.502Z,3.03
2019-02-22T01:57:00.304Z,2.66
2019-02-22T01:58:00.202Z,2.37
2019-02-22T01:59:00.104Z,2.37
2019-02-22T02:00:00.019Z,2.37
2019-02-22T02:00:59.906Z,2.37
2019-02-22T02:01:59.806Z,1.90
2019-02-22T02:02:59.826Z,1.99
2019-02-22T02:03:59.606Z,1.99
2019-02-22T02:04:59.522Z,1.80
2019-02-22T02:05:59.408Z,1.80
2019-02-22T02:06:59.307Z,1.99
2019-02-22T02:07:59.213Z,1.90
2019-02-22T02:08:59.110Z,1.80
2019-02-22T02:09:59.133Z,1.90
2019-02-22T02:10:58.911Z,1.80
2019-02-22T02:11:58.813Z,1.80
2019-02-22T02:12:58.716Z,1.32
2019-02-22T02:13:58.615Z,1.32
2019-02-22T02:14:58.528Z,1.04
2019-02-22T02:15:58.412Z,1.14
2019-02-22T02:16:58.423Z,1.04
2019-02-22T02:17:58.217Z,0.95
2019-02-22T02:18:58.116Z,0.95
2019-02-22T02:19:58.034Z,0.57
2019-02-22T02:20:57.915Z,0.85
2019-02-22T02:21:57.816Z,0.66
2019-02-22T02:22:57.722Z,0.66
2019-02-22T02:23:57.725Z,0.57
2019-02-22T02:24:57.535Z,0.66
2019-02-22T02:25:57.420Z,0.57
2019-02-22T02:26:57.320Z,0.66
2019-02-22T02:27:57.222Z,0.85
2019-02-22T02:28:57.122Z,0.66
2019-02-22T02:29:57.040Z,0.85
2019-02-22T02:30:57.037Z,0.76
2019-02-22T02:31:56.825Z,0.38
2019-02-22T02:32:56.726Z,0.47
2019-02-22T02:33:56.633Z,0.38
2019-02-22T02:34:56.544Z,0.57
2019-02-22T02:35:56.427Z,0.57
2019-02-22T02:36:56.337Z,0.47
2019-02-22T02:37:56.328Z,0.00
2019-02-22T02:38:56.137Z,0.00
2019-02-22T02:39:56.047Z,0.09
2019-02-22T02:41:08.075Z,0.00
2019-02-22T02:41:55.829Z,0.00
2019-02-22T02:42:55.730Z,0.00
2019-02-22T02:43:55.629Z,0.00
2019-02-22T02:44:55.634Z,0.00
2019-02-22T02:45:55.449Z,0.00
2019-02-22T02:46:55.332Z,0.00
2019-02-22T02:47:55.233Z,0.00
2019-02-22T02:48:55.138Z,0.00
2019-02-22T02:49:55.061Z,0.00
2019-02-22T02:50:54.953Z,0.00
2019-02-22T02:51:54.937Z,0.00
2019-02-22T02:52:54.738Z,0.00
2019-02-22T02:53:54.637Z,0.00
2019-02-22T02:54:54.541Z,0.00
2019-02-22T02:55:54.459Z,0.00
2019-02-22T02:56:54.342Z,0.00
2019-02-22T02:57:54.240Z,0.00
2019-02-22T02:58:54.243Z,0.00
2019-02-22T02:59:54.045Z,0.00
2019-02-22T03:00:53.958Z,0.00
2019-02-22T03:01:53.844Z,0.00
2019-02-22T03:02:53.745Z,0.00
2019-02-22T03:03:53.645Z,0.00
2019-02-22T03:04:53.669Z,0.00
2019-02-22T03:05:53.462Z,0.00
2019-02-22T03:06:53.345Z,0.00
2019-02-22T03:07:53.248Z,0.00
2019-02-22T03:08:53.149Z,0.00
2019-02-22T03:09:53.051Z,0.00
2019-02-22T03:10:52.966Z,0.00
2019-02-22T03:11:52.860Z,0.00
2019-02-22T03:12:52.752Z,0.00
2019-02-22T03:13:52.652Z,0.00
2019-02-22T03:14:52.552Z,0.00
2019-02-22T03:15:52.473Z,0.00
2019-02-22T03:16:52.353Z,0.00
2019-02-22T03:17:52.255Z,0.00
2019-02-22T03:18:52.158Z,0.00
2019-02-22T03:19:52.055Z,0.00
2019-02-22T03:20:51.975Z,0.00
2019-02-22T03:21:51.867Z,0.00
2019-02-22T03:22:51.762Z,0.00
2019-02-22T03:23:51.714Z,0.00
2019-02-22T03:24:53.699Z,0.00
2019-02-22T03:25:51.481Z,0.00
2019-02-22T03:26:51.361Z,0.00
2019-02-22T03:27:51.260Z,0.00
2019-02-22T03:28:51.162Z,0.00
2019-02-22T03:29:51.066Z,0.00
2019-02-22T03:30:50.989Z,0.00
2019-02-22T03:31:50.866Z,0.00
2019-02-22T03:32:50.765Z,0.00
2019-02-22T03:33:50.668Z,0.00
2019-02-22T03:34:50.568Z,0.00
2019-02-22T03:35:50.486Z,0.00
2019-02-22T03:36:50.367Z,0.00
2019-02-22T03:37:50.267Z,0.00
2019-02-22T03:38:50.175Z,0.00
2019-02-22T03:39:50.076Z,0.00
2019-02-22T03:40:49.989Z,0.00
2019-02-22T03:41:49.872Z,0.00
2019-02-22T03:42:49.776Z,0.00
2019-02-22T03:43:49.675Z,0.00
2019-02-22T03:44:49.574Z,0.00
2019-02-22T03:45:49.492Z,0.00
2019-02-22T03:46:49.374Z,0.00
2019-02-22T03:47:49.276Z,0.00
2019-02-22T03:48:49.175Z,0.00
2019-02-22T03:49:49.077Z,0.00
2019-02-22T03:50:48.998Z,0.00
2019-02-22T03:51:48.880Z,0.00
2019-02-22T03:52:48.782Z,0.00
2019-02-22T03:53:48.685Z,0.00
2019-02-22T03:54:48.580Z,0.00
2019-02-22T03:55:48.499Z,0.00
2019-02-22T03:56:48.383Z,0.00
2019-02-22T03:57:48.285Z,0.00
2019-02-22T03:58:48.184Z,0.00
2019-02-22T03:59:50.931Z,0.00
2019-02-22T04:00:48.005Z,0.00
2019-02-22T04:01:47.888Z,0.00
2019-02-22T04:02:47.788Z,0.00
2019-02-22T04:03:47.690Z,0.00
2019-02-22T04:04:47.588Z,0.00
2019-02-22T04:05:47.521Z,0.00
2019-02-22T04:06:47.388Z,0.00
2019-02-22T04:07:47.293Z,0.00
2019-02-22T04:08:47.192Z,0.00
2019-02-22T04:09:47.095Z,0.00
2019-02-22T04:10:47.016Z,0.00
2019-02-22T04:11:46.895Z,0.00
2019-02-22T04:12:46.797Z,0.00
2019-02-22T04:13:46.701Z,0.00
2019-02-22T04:14:46.600Z,0.00
2019-02-22T04:15:46.513Z,0.00
2019-02-22T04:16:46.400Z,0.00
2019-02-22T04:17:46.310Z,0.00
2019-02-22T04:18:46.199Z,0.00
2019-02-22T04:19:46.104Z,0.00
2019-02-22T04:20:46.019Z,0.00
2019-02-22T04:21:45.902Z,0.00
2019-02-22T04:22:45.803Z,0.00
2019-02-22T04:23:45.702Z,0.00
2019-02-22T04:24:45.605Z,0.00
2019-02-22T04:25:45.504Z,0.00
2019-02-22T04:26:45.418Z,0.00
2019-02-22T04:27:45.321Z,0.00
2019-02-22T04:28:45.207Z,0.00
2019-02-22T04:29:45.105Z,0.00
2019-02-22T04:30:45.022Z,0.00
2019-02-22T04:31:44.924Z,0.00
2019-02-22T04:32:44.810Z,0.00
2019-02-22T04:33:44.708Z,0.00
2019-02-22T04:34:44.610Z,0.00
2019-02-22T04:35:44.517Z,0.00
2019-02-22T04:36:44.425Z,0.00
2019-02-22T04:37:44.315Z,0.00
2019-02-22T04:38:44.217Z,0.00
2019-02-22T04:39:44.115Z,0.00
2019-02-22T04:40:44.015Z,0.00
2019-02-22T04:41:43.930Z,0.00
2019-02-22T04:42:43.917Z,0.00
2019-02-22T04:43:43.717Z,0.00
2019-02-22T04:44:43.617Z,0.00
2019-02-22T04:45:43.523Z,0.00
2019-02-22T04:46:43.437Z,0.00
2019-02-22T04:47:43.322Z,0.00
2019-02-22T04:48:43.219Z,0.00
2019-02-22T04:49:43.132Z,0.00
2019-02-22T04:50:43.023Z,0.00
2019-02-22T04:51:42.939Z,0.00
2019-02-22T04:52:42.822Z,0.00
2019-02-22T04:53:42.723Z,0.00
2019-02-22T04:54:42.630Z,0.00
2019-02-22T04:55:42.524Z,0.00
2019-02-22T04:56:42.555Z,0.00
2019-02-22T04:57:42.327Z,0.00
2019-02-22T04:58:42.230Z,0.00
2019-02-22T04:59:42.129Z,0.00
2019-02-22T05:00:42.029Z,0.00
2019-02-22T05:01:41.945Z,0.00
2019-02-22T05:02:41.842Z,0.00
2019-02-22T05:03:41.853Z,0.00
2019-02-22T05:04:41.632Z,0.00
2019-02-22T05:05:41.531Z,0.00
2019-02-22T05:06:41.452Z,0.00
2019-02-22T05:07:41.336Z,0.00
2019-02-22T05:08:41.237Z,0.00
2019-02-22T05:09:41.136Z,0.00
2019-02-22T05:10:41.134Z,0.00
2019-02-22T05:11:40.952Z,0.00
2019-02-22T05:12:40.834Z,0.00
2019-02-22T05:13:40.737Z,0.00
2019-02-22T05:14:40.648Z,0.76
2019-02-22T05:15:40.538Z,1.23
2019-02-22T05:16:40.454Z,1.23
2019-02-22T05:17:40.438Z,1.99
2019-02-22T05:18:40.240Z,2.18
2019-02-22T05:19:40.145Z,2.75
2019-02-22T05:20:40.043Z,2.75
2019-02-22T05:21:39.990Z,2.84
2019-02-22T05:22:39.851Z,3.51
2019-02-22T05:23:39.745Z,3.22
2019-02-22T05:24:39.649Z,3.41
2019-02-22T05:25:39.548Z,3.41
2019-02-22T05:26:39.464Z,3.51
2019-02-22T05:27:39.343Z,3.41
2019-02-22T05:28:39.244Z,3.41
2019-02-22T05:29:39.145Z,3.70
2019-02-22T05:30:39.051Z,3.32
2019-02-22T05:31:38.966Z,3.51
2019-02-22T05:32:38.849Z,3.03
2019-02-22T05:33:38.752Z,3.22
2019-02-22T05:34:38.652Z,3.13
2019-02-22T05:35:38.552Z,3.03
2019-02-22T05:36:38.471Z,3.13
2019-02-22T05:37:38.355Z,3.03
2019-02-22T05:38:38.249Z,3.03
2019-02-22T05:39:38.153Z,2.94
2019-02-22T05:40:38.073Z,3.22
2019-02-22T05:41:37.977Z,3.22
2019-02-22T05:42:37.859Z,3.13
2019-02-22T05:43:37.756Z,3.13
2019-02-22T05:44:37.653Z,2.84
2019-02-22T05:45:37.556Z,2.28
2019-02-22T05:46:37.477Z,3.03
2019-02-22T05:47:37.355Z,2.56
2019-02-22T05:48:38.877Z,2.56
2019-02-22T05:49:37.159Z,3.22
2019-02-22T05:50:37.064Z,2.47
2019-02-22T05:51:36.979Z,2.47
2019-02-22T05:52:36.862Z,3.03
2019-02-22T05:53:37.076Z,2.37
2019-02-22T05:54:36.660Z,2.94
2019-02-22T05:55:36.562Z,3.03
2019-02-22T05:56:36.479Z,3.03
2019-02-22T05:57:36.366Z,2.94
2019-02-22T05:58:36.269Z,2.84
2019-02-22T05:59:36.166Z,2.84
2019-02-22T06:00:36.175Z,3.03
2019-02-22T06:01:35.988Z,2.84
2019-02-22T06:02:35.866Z,2.84
2019-02-22T06:03:35.767Z,3.03
2019-02-22T06:04:35.667Z,3.22
2019-02-22T06:05:35.572Z,2.94
2019-02-22T06:06:35.490Z,3.03
2019-02-22T06:07:35.370Z,2.84
2019-02-22T06:08:35.269Z,2.84
2019-02-22T06:09:35.173Z,2.75
2019-02-22T06:10:35.070Z,3.03
2019-02-22T06:11:35.108Z,2.56
2019-02-22T06:12:35.171Z,2.47
2019-02-22T06:13:34.775Z,2.37
2019-02-22T06:14:34.673Z,3.03
2019-02-22T06:15:34.578Z,2.94
2019-02-22T06:16:34.480Z,3.03
2019-02-22T06:17:34.401Z,2.75
2019-02-22T06:18:34.277Z,2.66
2019-02-22T06:19:34.178Z,2.75
2019-02-22T06:20:34.076Z,2.66
2019-02-22T06:21:33.978Z,2.84
2019-02-22T06:22:33.899Z,3.13
2019-02-22T06:23:33.780Z,2.94
2019-02-22T06:24:33.693Z,3.22
2019-02-22T06:25:33.582Z,3.13
2019-02-22T06:26:33.481Z,3.22
2019-02-22T06:27:33.401Z,2.94
2019-02-22T06:28:33.285Z,3.13
2019-02-22T06:29:33.183Z,3.03
2019-02-22T06:30:33.087Z,3.03
2019-02-22T06:31:32.987Z,3.03
2019-02-22T06:32:32.900Z,2.84
2019-02-22T06:33:32.788Z,3.03
2019-02-22T06:34:32.691Z,3.03
2019-02-22T06:35:32.587Z,2.94
2019-02-22T06:36:32.494Z,2.47
2019-02-22T06:37:32.408Z,3.03
2019-02-22T06:38:32.290Z,2.47
2019-02-22T06:39:32.195Z,2.66
2019-02-22T06:40:32.092Z,2.84
2019-02-22T06:41:31.992Z,2.66
2019-02-22T06:42:31.911Z,2.75
2019-02-22T06:43:31.794Z,2.84
2019-02-22T06:44:31.696Z,2.66
2019-02-22T06:45:31.595Z,2.37
2019-02-22T06:46:31.497Z,2.56
2019-02-22T06:47:31.415Z,2.66
2019-02-22T06:48:31.299Z,2.56
2019-02-22T06:49:31.195Z,2.56
2019-02-22T06:50:34.026Z,2.56
2019-02-22T06:51:31.001Z,2.56
2019-02-22T06:52:30.918Z,2.84
2019-02-22T06:53:30.797Z,2.66
2019-02-22T06:54:30.698Z,2.47
2019-02-22T06:55:30.616Z,2.84
2019-02-22T06:56:30.499Z,2.47
2019-02-22T06:57:30.421Z,2.66
2019-02-22T06:58:30.306Z,2.47
2019-02-22T06:59:30.203Z,2.75
2019-02-22T07:00:30.110Z,2.37
2019-02-22T07:01:30.005Z,2.66
2019-02-22T07:02:29.922Z,2.75
2019-02-22T07:03:29.813Z,2.47
2019-02-22T07:04:29.707Z,2.47
2019-02-22T07:05:29.606Z,2.75
2019-02-22T07:06:29.509Z,2.56
2019-02-22T07:07:29.436Z,2.47
2019-02-22T07:08:29.315Z,2.66
2019-02-22T07:09:29.210Z,2.47
2019-02-22T07:10:29.111Z,2.47
2019-02-22T07:11:29.010Z,2.66
2019-02-22T07:12:28.955Z,2.84
2019-02-22T07:13:28.811Z,2.28
2019-02-22T07:14:28.710Z,2.84
2019-02-22T07:15:28.615Z,2.84
2019-02-22T07:16:28.520Z,3.70
2019-02-22T07:17:28.435Z,4.17
2019-02-22T07:18:28.320Z,5.32
2019-02-22T07:19:28.216Z,6.26
2019-02-22T07:20:28.119Z,7.88
2019-02-22T07:21:38.863Z,9.01
2019-02-22T07:22:27.940Z,10.16
2019-02-22T07:23:27.821Z,10.91
2019-02-22T07:24:27.722Z,12.15
2019-02-22T07:25:27.623Z,13.29
2019-02-22T07:26:27.522Z,15.19
2019-02-22T07:27:27.430Z,16.33
2019-02-22T07:28:27.340Z,17.94
2019-02-22T07:29:27.224Z,18.79
2019-02-22T07:30:27.126Z,20.12
2019-02-22T07:31:27.024Z,21.45
2019-02-22T07:32:26.946Z,22.50
2019-02-22T07:33:26.827Z,22.97
2019-02-22T07:34:26.743Z,23.25
2019-02-22T07:35:26.637Z,22.78
2019-02-22T07:36:26.530Z,22.31
2019-02-22T07:37:26.436Z,22.97
2019-02-22T07:38:26.355Z,23.16
2019-02-22T07:39:28.182Z,23.07
2019-02-22T07:40:26.132Z,22.88
2019-02-22T07:41:26.031Z,22.60
2019-02-22T07:42:25.987Z,22.21
2019-02-22T07:43:25.853Z,21.93
2019-02-22T07:44:25.847Z,21.45
2019-02-22T07:45:25.636Z,20.98
2019-02-22T07:46:25.541Z,21.17
2019-02-22T07:47:25.443Z,21.45
2019-02-22T07:48:25.357Z,20.60
2019-02-22T07:49:25.241Z,21.36
2019-02-22T07:50:25.141Z,20.60
2019-02-22T07:51:25.144Z,19.93
2019-02-22T07:52:24.992Z,19.74
2019-02-22T07:53:24.863Z,19.46
2019-02-22T07:54:24.747Z,19.37
2019-02-22T07:55:24.650Z,19.37
2019-02-22T07:56:24.544Z,18.70
2019-02-22T07:57:24.446Z,18.70
2019-02-22T07:58:24.471Z,19.65
2019-02-22T07:59:24.252Z,20.98
2019-02-22T08:00:24.165Z,22.88
2019-02-22T08:01:26.894Z,24.40
2019-02-22T08:02:23.954Z,25.63
2019-02-22T08:03:23.883Z,26.39
2019-02-22T08:04:23.756Z,28.00
2019-02-22T08:05:23.757Z,28.48
2019-02-22T08:06:23.557Z,28.57
2019-02-22T08:07:23.459Z,29.33
2019-02-22T08:08:23.383Z,29.71
2019-02-22T08:09:23.259Z,30.00
2019-02-22T08:10:23.161Z,31.71
2019-02-22T08:11:23.063Z,32.84
2019-02-22T08:12:23.089Z,35.22
2019-02-22T08:13:22.871Z,36.65
2019-02-22T08:14:22.787Z,36.26
2019-02-22T08:15:22.671Z,36.55
2019-02-22T08:16:22.568Z,36.74
2019-02-22T08:17:22.471Z,37.88
2019-02-22T08:18:22.375Z,38.54
2019-02-22T08:19:22.388Z,38.64
2019-02-22T08:20:22.178Z,38.54
2019-02-22T08:21:22.079Z,38.45
2019-02-22T08:22:21.985Z,38.16
2019-02-22T08:23:21.876Z,38.16
2019-02-22T08:24:21.794Z,38.64
2019-02-22T08:25:21.677Z,38.45
2019-02-22T08:26:21.734Z,38.16
2019-02-22T08:27:21.493Z,38.64
2019-02-22T08:28:21.386Z,38.35
2019-02-22T08:29:21.300Z,38.73
2019-02-22T08:30:21.189Z,37.97
2019-02-22T08:31:21.085Z,37.50
2019-02-22T08:32:20.989Z,37.12
2019-02-22T08:33:21.006Z,37.40
2019-02-22T08:34:20.805Z,37.50
2019-02-22T08:35:20.690Z,37.50
2019-02-22T08:36:20.591Z,37.97
2019-02-22T08:37:20.494Z,37.69
2019-02-22T08:38:20.396Z,37.30
2019-02-22T08:39:20.313Z,37.30
2019-02-22T08:40:20.313Z,37.69
2019-02-22T08:41:20.113Z,37.50
2019-02-22T08:42:19.998Z,37.78
2019-02-22T08:43:30.738Z,36.93
2019-02-22T08:44:19.818Z,36.83
2019-02-22T08:45:19.714Z,36.17
2019-02-22T08:46:19.608Z,35.88
2019-02-22T08:47:19.609Z,34.75
2019-02-22T08:48:19.406Z,35.13
2019-02-22T08:49:19.323Z,34.75
2019-02-22T08:50:19.211Z,34.75
2019-02-22T08:51:19.117Z,34.55
2019-02-22T08:52:19.014Z,33.98
2019-02-22T08:53:19.047Z,33.61
2019-02-22T08:54:18.831Z,34.08
2019-02-22T08:55:18.728Z,34.08
2019-02-22T08:56:18.618Z,33.89
2019-02-22T08:57:18.518Z,33.42
2019-02-22T08:58:18.420Z,33.23
2019-02-22T08:59:18.338Z,33.23
2019-02-22T09:00:18.223Z,33.42
2019-02-22T09:01:18.124Z,34.46
2019-02-22T09:02:18.026Z,36.19
2019-02-22T09:03:17.934Z,37.80
2019-02-22T09:04:17.844Z,38.56
2019-02-22T09:05:17.734Z,39.79
2019-02-22T09:06:17.631Z,41.03
2019-02-22T09:07:17.531Z,42.93
2019-02-22T09:08:17.433Z,45.02
2019-02-22T09:09:17.350Z,45.02
2019-02-22T09:10:17.235Z,45.66
2019-02-22T09:11:17.143Z,45.12
2019-02-22T09:12:17.041Z,45.19
2019-02-22T09:13:16.941Z,44.81
2019-02-22T09:14:16.862Z,44.71
2019-02-22T09:15:16.746Z,44.62
2019-02-22T09:16:16.647Z,44.71
2019-02-22T09:17:16.551Z,44.07
2019-02-22T09:18:16.450Z,44.73
2019-02-22T09:19:16.372Z,44.73
2019-02-22T09:20:16.334Z,45.95
2019-02-22T09:21:16.187Z,45.38
2019-02-22T09:22:22.811Z,45.02
2019-02-22T09:23:15.957Z,43.31
2019-02-22T09:24:15.873Z,42.74
2019-02-22T09:25:15.852Z,43.67
2019-02-22T09:26:15.660Z,43.21
2019-02-22T09:27:15.561Z,43.95
2019-02-22T09:28:15.461Z,44.73
2019-02-22T09:29:15.384Z,46.14
2019-02-22T09:30:15.272Z,48.13
2019-02-22T09:31:15.170Z,48.63
2019-02-22T09:32:15.069Z,49.20
2019-02-22T09:33:14.971Z,50.15
2019-02-22T09:34:14.887Z,50.81
2019-02-22T09:35:14.772Z,50.34
2019-02-22T09:36:14.679Z,50.53
2019-02-22T09:37:14.575Z,51.39
2019-02-22T09:38:14.479Z,50.62
2019-02-22T09:39:14.397Z,50.24
2019-02-22T09:40:14.901Z,49.29
2019-02-22T09:41:14.185Z,49.01
2019-02-22T09:42:14.089Z,48.54
2019-02-22T09:43:13.986Z,47.37
2019-02-22T09:44:13.893Z,46.80
2019-02-22T09:45:13.811Z,46.70
2019-02-22T09:46:13.693Z,45.57
2019-02-22T09:47:13.591Z,44.53
2019-02-22T09:48:13.494Z,43.86
2019-02-22T09:49:13.398Z,43.38
2019-02-22T09:50:13.318Z,43.10
2019-02-22T09:51:13.198Z,43.29
2019-02-22T09:52:13.101Z,43.19
2019-02-22T09:53:13.005Z,42.63
2019-02-22T09:54:12.906Z,41.86
2019-02-22T09:55:12.820Z,41.79
2019-02-22T09:56:12.705Z,42.36
2019-02-22T09:57:12.607Z,41.69
2019-02-22T09:58:12.510Z,42.65
2019-02-22T09:59:12.413Z,43.12
2019-02-22T10:00:12.329Z,43.10
2019-02-22T10:01:12.212Z,43.48
2019-02-22T10:02:12.115Z,43.41
2019-02-22T10:03:12.017Z,43.76
2019-02-22T10:04:11.919Z,42.05
2019-02-22T10:05:11.837Z,42.15
2019-02-22T10:06:11.721Z,43.01
2019-02-22T10:07:11.624Z,44.71
2019-02-22T10:08:11.525Z,46.99
2019-02-22T10:09:11.429Z,48.99
2019-02-22T10:10:11.347Z,47.75
2019-02-22T10:11:11.231Z,47.75
2019-02-22T10:12:11.134Z,47.66
2019-02-22T10:13:11.035Z,48.80
2019-02-22T10:14:10.932Z,49.46
2019-02-22T10:15:10.939Z,48.89
2019-02-22T10:16:10.737Z,49.65
2019-02-22T10:17:10.642Z,49.37
2019-02-22T10:18:10.539Z,49.93
2019-02-22T10:19:10.445Z,50.22
2019-02-22T10:20:10.378Z,50.72
2019-02-22T10:21:10.245Z,51.36
2019-02-22T10:22:10.147Z,51.55
2019-02-22T10:23:10.047Z,50.62
2019-02-22T10:24:10.054Z,51.20
2019-02-22T10:25:09.869Z,52.62
2019-02-22T10:26:09.751Z,52.24
2019-02-22T10:27:12.038Z,52.14
2019-02-22T10:28:17.317Z,52.14
2019-02-22T10:29:09.462Z,52.05
2019-02-22T10:30:09.373Z,53.85
2019-02-22T10:31:09.378Z,54.99
2019-02-22T10:32:09.159Z,55.97
2019-02-22T10:33:09.072Z,59.20
2019-02-22T10:34:08.967Z,60.44
2019-02-22T10:35:08.884Z,61.39
2019-02-22T10:36:08.767Z,64.46
2019-02-22T10:37:08.673Z,70.20
2019-02-22T10:38:08.690Z,72.81
2019-02-22T10:39:08.479Z,73.82
2019-02-22T10:40:08.388Z,73.53
2019-02-22T10:41:08.279Z,74.90
2019-02-22T10:42:08.179Z,76.65
2019-02-22T10:43:08.089Z,77.09
2019-02-22T10:44:17.474Z,77.09
2019-02-22T10:45:07.910Z,77.05
2019-02-22T10:46:07.793Z,76.76
2019-02-22T10:47:07.697Z,77.05
2019-02-22T10:48:07.604Z,76.92
2019-02-22T10:49:07.506Z,76.92
2019-02-22T10:50:07.427Z,75.96
2019-02-22T10:51:07.312Z,75.96
2019-02-22T10:52:07.221Z,76.50
2019-02-22T10:53:07.125Z,75.55
2019-02-22T10:54:07.021Z,75.74
2019-02-22T10:55:06.945Z,76.59
2019-02-22T10:56:06.830Z,76.63
2019-02-22T10:57:06.849Z,77.49
2019-02-22T10:58:06.634Z,77.30
2019-02-22T10:59:06.544Z,77.81
2019-02-22T11:00:06.458Z,78.10
2019-02-22T11:01:06.346Z,77.62
2019-02-22T11:02:06.286Z,77.62
2019-02-22T11:03:06.156Z,77.43
2019-02-22T11:04:06.054Z,78.19
2019-02-22T11:05:05.978Z,78.42
2019-02-22T11:06:05.876Z,82.12
2019-02-22T11:07:05.772Z,81.65
2019-02-22T11:08:05.672Z,80.98
2019-02-22T11:09:05.576Z,86.02
2019-02-22T11:10:05.500Z,85.06
2019-02-22T11:11:05.386Z,84.79
2019-02-22T11:12:05.290Z,84.41
2019-02-22T11:13:05.194Z,83.51
2019-02-22T11:14:05.102Z,84.17
2019-02-22T11:15:05.023Z,83.09
2019-02-22T11:16:04.909Z,84.13
2019-02-22T11:17:04.822Z,83.09
2019-02-22T11:18:04.720Z,83.47
2019-02-22T11:19:04.631Z,82.95
2019-02-22T11:20:04.548Z,82.57
2019-02-22T11:21:04.436Z,82.86
2019-02-22T11:22:04.345Z,82.57
2019-02-22T11:23:04.252Z,82.00
2019-02-22T11:24:04.151Z,82.00
2019-02-22T11:25:04.077Z,82.09
2019-02-22T11:26:03.963Z,81.71
2019-02-22T11:27:03.871Z,82.28
2019-02-22T11:28:03.774Z,81.71
2019-02-22T11:29:03.681Z,82.28
2019-02-22T11:30:03.588Z,82.38
2019-02-22T11:31:03.513Z,82.28
2019-02-22T11:32:03.391Z,82.19
2019-02-22T11:33:03.301Z,82.43
2019-02-22T11:34:03.201Z,81.77
2019-02-22T11:35:03.108Z,81.58
2019-02-22T11:36:03.033Z,81.06
2019-02-22T11:37:02.916Z,79.44
2019-02-22T11:38:02.826Z,78.88
2019-02-22T11:39:02.731Z,78.21
2019-02-22T11:40:02.629Z,77.51
2019-02-22T11:41:02.549Z,76.84
2019-02-22T11:42:02.441Z,76.37
2019-02-22T11:43:02.343Z,75.42
2019-02-22T11:44:02.244Z,74.27
2019-02-22T11:45:02.254Z,74.18
2019-02-22T11:46:02.074Z,74.03
2019-02-22T11:47:01.958Z,74.79
2019-02-22T11:48:08.999Z,74.79
2019-02-22T11:49:01.763Z,74.94
2019-02-22T11:50:01.670Z,74.98
2019-02-22T11:51:01.589Z,75.64
2019-02-22T11:52:01.580Z,75.55
2019-02-22T11:53:01.379Z,76.31
2019-02-22T11:54:01.284Z,76.69
2019-02-22T11:55:01.211Z,75.84
2019-02-22T11:56:01.108Z,75.60
2019-02-22T11:57:01.023Z,75.13
2019-02-22T11:58:00.899Z,75.04
2019-02-22T11:59:00.901Z,74.62
2019-02-22T12:00:00.712Z,74.33
2019-02-22T12:01:00.625Z,74.52
2019-02-22T12:02:00.515Z,73.86
2019-02-22T12:03:12.229Z,74.05
2019-02-22T12:04:00.318Z,73.96
2019-02-22T12:05:00.243Z,73.48
2019-02-22T12:06:00.140Z,73.19
2019-02-22T12:07:00.027Z,72.25
2019-02-22T12:07:59.930Z,70.82
2019-02-22T12:08:59.832Z,70.35
2019-02-22T12:09:59.737Z,70.63
2019-02-22T12:10:59.654Z,70.35
2019-02-22T12:11:59.546Z,70.35
2019-02-22T12:12:59.445Z,70.25
2019-02-22T12:13:59.345Z,71.20
2019-02-22T12:14:59.252Z,71.01
2019-02-22T12:15:59.168Z,70.54
2019-02-22T12:16:59.061Z,70.54
2019-02-22T12:17:58.956Z,71.01
2019-02-22T12:18:58.859Z,70.54
2019-02-22T12:19:58.762Z,71.20
2019-02-22T12:20:58.685Z,70.82
2019-02-22T12:21:58.569Z,71.01
2019-02-22T12:22:58.468Z,70.92
2019-02-22T12:23:58.369Z,71.01
2019-02-22T12:24:58.277Z,70.73
2019-02-22T12:25:58.194Z,71.11
2019-02-22T12:26:58.098Z,71.77
2019-02-22T12:27:57.986Z,71.86
2019-02-22T12:28:57.883Z,71.58
2019-02-22T12:29:57.786Z,71.17
2019-02-22T12:30:57.720Z,70.69
2019-02-22T12:31:57.605Z,70.50
2019-02-22T12:32:57.491Z,70.12
2019-02-22T12:33:57.397Z,69.84
2019-02-22T12:34:57.297Z,70.21
2019-02-22T12:35:57.216Z,70.03
2019-02-22T12:36:57.099Z,70.50
2019-02-22T12:37:57.004Z,70.50
2019-02-22T12:38:56.903Z,71.07
2019-02-22T12:39:56.808Z,70.50
2019-02-22T12:40:56.723Z,70.88
2019-02-22T12:41:56.608Z,70.69
2019-02-22T12:42:56.509Z,70.69
2019-02-22T12:43:56.414Z,70.78
2019-02-22T12:45:02.930Z,71.07
2019-02-22T12:45:56.230Z,70.59
2019-02-22T12:46:56.115Z,70.78
2019-02-22T12:47:56.017Z,70.65
2019-02-22T12:48:55.921Z,71.03
2019-02-22T12:49:55.822Z,70.69
2019-02-22T12:50:55.743Z,71.55
2019-02-22T12:51:55.623Z,71.13
2019-02-22T12:52:55.531Z,71.41
2019-02-22T12:53:55.433Z,70.56
2019-02-22T12:54:55.330Z,70.75
2019-02-22T12:55:55.247Z,70.75
2019-02-22T12:56:57.380Z,70.37
2019-02-22T12:57:55.031Z,70.09
2019-02-22T12:58:54.930Z,69.71
2019-02-22T12:59:54.832Z,69.71
2019-02-22T13:00:54.749Z,69.90
2019-02-22T13:01:54.634Z,69.13
2019-02-22T13:03:02.012Z,68.10